Time;durP1;ratioP1;P1;durP2;ratioP2;P2;SDS_P1;SDS_P2;PMS_P1;PMS_P2;Temp;Humidity;BMP_temperature;BMP_pressure;BME280_temperature;BME280_humidity;BME280_pressure;Samples;Min_cycle;Max_cycle;Signal;HPM_P1;HPM_P2
2022/02/13 00:01:01;;;;;;;0.30;0.30;;;0.30;99.90;;;;;;5056002;28;20426;-81
2022/02/13 00:03:30;;;;;;;0.37;0.37;;;0.30;99.90;;;;;;5055598;28;20827;-81
2022/02/13 00:05:57;;;;;;;0.40;0.30;;;0.30;99.90;;;;;;5055803;28;20481;-81
2022/02/13 00:08:24;;;;;;;0.50;0.40;;;0.30;99.90;;;;;;5055827;28;20453;-81
2022/02/13 00:10:50;;;;;;;0.40;0.40;;;0.40;99.90;;;;;;5055818;28;20453;-81
2022/02/13 00:13:17;;;;;;;0.30;0.30;;;0.50;99.90;;;;;;5055741;28;20445;-81
2022/02/13 00:15:44;;;;;;;0.30;0.30;;;0.50;99.90;;;;;;5055689;28;20449;-81
2022/02/13 00:18:10;;;;;;;0.30;0.30;;;0.50;99.90;;;;;;5055612;28;20480;-81
2022/02/13 00:20:39;;;;;;;1.00;0.90;;;0.50;99.90;;;;;;5055655;28;20413;-81
2022/02/13 00:23:05;;;;;;;0.30;0.30;;;0.50;99.90;;;;;;5055295;28;20425;-82
2022/02/13 00:25:32;;;;;;;0.30;0.30;;;0.50;99.90;;;;;;5056038;28;20445;-81
2022/02/13 00:27:59;;;;;;;0.30;0.30;;;0.50;99.90;;;;;;5055146;28;20460;-81
2022/02/13 00:30:26;;;;;;;0.93;0.93;;;0.50;99.90;;;;;;5055108;28;20977;-81
2022/02/13 00:32:54;;;;;;;0.30;0.30;;;0.50;99.90;;;;;;5054986;28;20425;-81
2022/02/13 00:35:21;;;;;;;0.30;0.30;;;0.50;99.90;;;;;;5055389;28;20465;-81
2022/02/13 00:37:49;;;;;;;0.30;0.30;;;0.40;99.90;;;;;;5055146;28;20818;-81
2022/02/13 00:40:16;;;;;;;0.30;0.30;;;0.40;99.90;;;;;;5054983;28;20933;-81
2022/02/13 00:42:43;;;;;;;0.30;0.30;;;0.40;99.90;;;;;;5055234;28;20465;-81
2022/02/13 00:45:12;;;;;;;0.30;0.30;;;0.40;99.90;;;;;;5055159;28;20482;-81
2022/02/13 00:47:39;;;;;;;5.60;0.90;;;0.40;99.90;;;;;;5054721;28;20959;-81
2022/02/13 00:50:07;;;;;;;0.63;0.43;;;0.30;99.90;;;;;;5055071;28;20449;-81
2022/02/13 00:52:34;;;;;;;0.40;0.40;;;0.30;99.90;;;;;;5054813;28;20420;-82
2022/02/13 00:55:03;;;;;;;0.30;0.30;;;0.30;99.90;;;;;;5054399;28;20967;-81
2022/02/13 00:57:29;;;;;;;0.50;0.50;;;0.30;99.90;;;;;;5066974;28;20826;-81
2022/02/13 00:59:56;;;;;;;0.60;0.60;;;0.30;99.90;;;;;;5074883;28;20452;-81
2022/02/13 01:02:23;;;;;;;0.30;0.30;;;0.30;99.90;;;;;;5074620;28;20795;-81
2022/02/13 01:04:49;;;;;;;0.30;0.30;;;0.40;99.90;;;;;;5075222;28;20457;-81
2022/02/13 01:07:16;;;;;;;0.30;0.30;;;0.40;99.90;;;;;;5074243;28;20491;-81
2022/02/13 01:09:43;;;;;;;0.30;0.30;;;0.40;99.90;;;;;;5074381;28;20945;-82
2022/02/13 01:12:11;;;;;;;0.40;0.40;;;0.40;99.90;;;;;;5074667;28;20433;-82
2022/02/13 01:14:38;;;;;;;0.30;0.30;;;0.50;99.90;;;;;;5074313;28;20433;-82
2022/02/13 01:17:05;;;;;;;0.30;0.30;;;0.60;99.90;;;;;;5074400;28;20469;-82
2022/02/13 01:19:32;;;;;;;0.30;0.30;;;0.60;99.90;;;;;;5074479;28;20449;-82
2022/02/13 01:22:02;;;;;;;0.30;0.30;;;0.70;99.90;;;;;;5074377;28;20444;-82
2022/02/13 01:24:30;;;;;;;0.30;0.30;;;0.70;99.90;;;;;;5074665;28;20491;-82
2022/02/13 01:26:57;;;;;;;1.47;0.47;;;0.70;99.90;;;;;;5074173;28;20493;-82
2022/02/13 01:29:26;;;;;;;0.83;0.83;;;0.70;99.90;;;;;;5073988;28;20449;-82
2022/02/13 01:31:52;;;;;;;0.63;0.63;;;0.70;99.90;;;;;;5074251;28;20457;-82
2022/02/13 01:34:19;;;;;;;0.60;0.60;;;0.70;99.90;;;;;;5074983;28;20453;-82
2022/02/13 01:36:46;;;;;;;0.30;0.30;;;0.60;99.90;;;;;;5074253;28;20464;-82
2022/02/13 01:39:13;;;;;;;0.30;0.30;;;0.60;99.90;;;;;;5074060;28;20449;-82
2022/02/13 01:41:40;;;;;;;0.70;0.70;;;0.70;99.90;;;;;;5073742;28;20959;-82
2022/02/13 01:44:21;;;;;;;0.40;0.40;;;0.70;99.90;;;;;;5073989;28;20424;-82
2022/02/13 01:46:49;;;;;;;0.30;0.30;;;0.70;99.90;;;;;;5073625;28;20480;-82
2022/02/13 01:49:16;;;;;;;0.30;0.30;;;0.70;99.90;;;;;;5073994;28;20443;-82
2022/02/13 01:51:45;;;;;;;0.30;0.30;;;0.70;99.90;;;;;;5073531;28;20835;-82
2022/02/13 01:54:12;;;;;;;0.40;0.40;;;0.70;99.90;;;;;;5073515;28;20453;-83
2022/02/13 01:56:39;;;;;;;0.30;0.30;;;0.60;99.90;;;;;;5073455;28;20480;-83
2022/02/13 01:59:06;;;;;;;0.50;0.50;;;0.60;99.90;;;;;;5073455;28;20452;-82
2022/02/13 02:01:33;;;;;;;0.30;0.30;;;0.70;99.90;;;;;;5073460;28;20412;-82
2022/02/13 02:04:01;;;;;;;0.30;0.30;;;0.60;99.90;;;;;;5073577;28;20453;-82
2022/02/13 02:06:28;;;;;;;0.40;0.40;;;0.70;99.90;;;;;;5072831;28;20514;-82
2022/02/13 02:08:54;;;;;;;0.30;0.30;;;0.70;99.90;;;;;;5073230;28;20985;-81
2022/02/13 02:11:21;;;;;;;0.30;0.30;;;0.70;99.90;;;;;;5073523;28;20427;-81
2022/02/13 02:13:48;;;;;;;0.30;0.30;;;0.70;99.90;;;;;;5073609;28;20450;-81
2022/02/13 02:16:15;;;;;;;0.30;0.30;;;0.70;99.90;;;;;;5073223;28;20460;-81
2022/02/13 02:18:42;;;;;;;0.30;0.30;;;0.70;99.90;;;;;;5073299;28;20442;-81
2022/02/13 02:21:10;;;;;;;0.50;0.50;;;0.80;99.90;;;;;;5073463;28;20448;-81
2022/02/13 02:23:39;;;;;;;0.30;0.30;;;0.80;99.90;;;;;;5073475;28;20447;-81
2022/02/13 02:26:07;;;;;;;0.30;0.30;;;0.80;99.90;;;;;;5073295;28;20531;-81
2022/02/13 02:28:34;;;;;;;0.30;0.30;;;0.80;99.90;;;;;;5073440;28;20427;-81
2022/02/13 02:31:01;;;;;;;0.30;0.30;;;0.80;99.90;;;;;;5073405;28;20453;-81
2022/02/13 02:33:28;;;;;;;0.30;0.30;;;0.80;99.90;;;;;;5073345;28;20452;-81
2022/02/13 02:35:55;;;;;;;1.40;1.30;;;0.80;99.90;;;;;;5073296;28;20473;-81
2022/02/13 02:38:23;;;;;;;0.40;0.40;;;0.80;99.90;;;;;;5073196;28;20468;-81
2022/02/13 02:40:51;;;;;;;0.60;0.60;;;0.80;99.90;;;;;;5073295;28;20445;-81
2022/02/13 02:43:18;;;;;;;0.30;0.30;;;0.80;99.90;;;;;;5073255;28;20490;-81
2022/02/13 02:45:45;;;;;;;0.30;0.30;;;0.80;99.90;;;;;;5073076;28;20448;-81
2022/02/13 02:48:11;;;;;;;0.37;0.37;;;0.70;99.90;;;;;;5073049;28;20484;-81
2022/02/13 02:50:38;;;;;;;0.47;0.47;;;0.70;99.90;;;;;;5072873;28;20435;-81
2022/02/13 02:53:05;;;;;;;0.30;0.30;;;0.80;99.90;;;;;;5073117;28;20427;-81
2022/02/13 02:55:32;;;;;;;0.40;0.40;;;0.80;99.90;;;;;;5073121;28;20419;-81
2022/02/13 02:58:00;;;;;;;0.30;0.30;;;0.80;99.90;;;;;;5072447;28;20976;-81
2022/02/13 03:00:26;;;;;;;0.30;0.30;;;0.80;99.90;;;;;;5072705;28;20424;-81
2022/02/13 03:02:53;;;;;;;0.40;0.40;;;0.80;99.90;;;;;;5072827;28;20922;-81
2022/02/13 03:05:20;;;;;;;0.30;0.30;;;0.80;99.90;;;;;;5072710;28;20815;-81
2022/02/13 03:07:47;;;;;;;0.30;0.30;;;0.80;99.90;;;;;;5072886;28;20520;-82
2022/02/13 03:10:14;;;;;;;0.30;0.30;;;0.90;99.90;;;;;;5072552;28;20453;-82
2022/02/13 03:12:40;;;;;;;0.40;0.40;;;0.80;99.90;;;;;;5072951;28;20427;-82
2022/02/13 03:15:09;;;;;;;1.23;1.23;;;0.80;99.90;;;;;;5072953;28;20444;-82
2022/02/13 03:17:36;;;;;;;0.30;0.30;;;0.80;99.90;;;;;;5074214;28;20987;-82
2022/02/13 03:20:03;;;;;;;0.30;0.30;;;0.80;99.90;;;;;;5076717;28;20436;-80
2022/02/13 03:22:30;;;;;;;0.30;0.30;;;0.80;99.90;;;;;;5076721;28;20807;-79
2022/02/13 03:24:59;;;;;;;0.30;0.30;;;0.80;99.90;;;;;;5076350;28;20463;-79
2022/02/13 03:27:26;;;;;;;0.30;0.20;;;0.80;99.90;;;;;;5076427;28;20925;-79
2022/02/13 03:29:53;;;;;;;0.40;0.40;;;0.80;99.90;;;;;;5076231;28;20453;-79
2022/02/13 03:32:21;;;;;;;0.40;0.40;;;0.80;99.90;;;;;;5076346;28;20491;-79
2022/02/13 03:34:48;;;;;;;0.30;0.30;;;0.80;99.90;;;;;;5076230;28;20457;-79
2022/02/13 03:37:15;;;;;;;0.30;0.30;;;0.80;99.90;;;;;;5076372;28;20443;-79
2022/02/13 03:39:43;;;;;;;0.30;0.30;;;0.80;99.90;;;;;;5076278;28;20457;-79
2022/02/13 03:42:12;;;;;;;0.30;0.20;;;0.80;99.90;;;;;;5076610;28;20441;-79
2022/02/13 03:44:39;;;;;;;0.30;0.30;;;0.80;99.90;;;;;;5078257;28;20428;-79
2022/02/13 03:47:06;;;;;;;0.30;0.30;;;0.90;99.90;;;;;;5075808;28;20995;-80
2022/02/13 03:49:34;;;;;;;0.30;0.30;;;0.90;99.90;;;;;;5076218;28;20423;-80
2022/02/13 03:52:01;;;;;;;0.40;0.40;;;0.90;99.90;;;;;;5076183;28;20437;-80
2022/02/13 03:54:28;;;;;;;0.40;0.40;;;0.90;99.90;;;;;;5075892;28;20433;-80
2022/02/13 03:56:55;;;;;;;0.30;0.30;;;0.90;99.90;;;;;;5075700;28;20488;-79
2022/02/13 03:59:22;;;;;;;0.30;0.30;;;0.90;99.90;;;;;;5076032;28;20460;-79
2022/02/13 04:01:48;;;;;;;1.07;0.80;;;1.00;99.90;;;;;;5076023;28;20457;-80
2022/02/13 04:04:15;;;;;;;0.30;0.30;;;1.00;99.90;;;;;;5075974;28;20531;-79
2022/02/13 04:06:43;;;;;;;0.30;0.30;;;1.00;99.90;;;;;;5075770;28;20464;-80
2022/02/13 04:09:10;;;;;;;1.50;0.60;;;1.00;99.90;;;;;;5075889;28;20446;-79
2022/02/13 04:11:37;;;;;;;0.30;0.30;;;1.00;99.90;;;;;;5075834;28;20423;-80
2022/02/13 04:14:04;;;;;;;0.30;0.20;;;1.10;99.90;;;;;;5075687;28;20445;-80
2022/02/13 04:16:31;;;;;;;0.70;0.70;;;1.10;99.90;;;;;;5075689;28;20468;-80
2022/02/13 04:18:58;;;;;;;0.30;0.30;;;1.10;99.90;;;;;;5075706;28;20440;-80
2022/02/13 04:21:25;;;;;;;1.03;0.90;;;1.10;99.90;;;;;;5075619;28;20440;-80
2022/02/13 04:23:53;;;;;;;0.37;0.37;;;1.10;99.90;;;;;;5075170;28;20960;-80
2022/02/13 04:26:20;;;;;;;0.40;0.40;;;1.10;99.90;;;;;;5075141;28;20476;-80
2022/02/13 04:28:46;;;;;;;0.30;0.30;;;1.20;99.90;;;;;;5074586;28;20484;-80
2022/02/13 04:31:13;;;;;;;0.30;0.30;;;1.20;99.90;;;;;;5075498;28;20445;-80
2022/02/13 04:33:40;;;;;;;0.30;0.30;;;1.20;99.90;;;;;;5075448;28;20445;-80
2022/02/13 04:36:08;;;;;;;0.30;0.30;;;1.30;99.90;;;;;;5075268;28;20449;-80
2022/02/13 04:38:35;;;;;;;0.30;0.30;;;1.20;99.90;;;;;;5075320;28;20862;-80
2022/02/13 04:41:03;;;;;;;0.30;0.30;;;1.20;99.90;;;;;;5075961;28;20795;-80
2022/02/13 04:43:30;;;;;;;0.40;0.40;;;1.20;99.90;;;;;;5074941;28;20963;-80
2022/02/13 04:45:57;;;;;;;0.30;0.30;;;1.10;99.90;;;;;;5075054;28;20449;-80
2022/02/13 04:48:23;;;;;;;1.13;0.50;;;1.10;99.90;;;;;;5074978;28;20486;-81
2022/02/13 04:50:50;;;;;;;0.30;0.30;;;1.10;99.90;;;;;;5075081;28;20460;-80
2022/02/13 04:53:17;;;;;;;0.73;0.73;;;1.10;99.90;;;;;;5074958;28;20436;-80
2022/02/13 04:55:43;;;;;;;0.30;0.20;;;1.10;99.90;;;;;;5074955;28;20456;-81
2022/02/13 04:58:12;;;;;;;0.30;0.30;;;1.10;99.90;;;;;;5074471;28;20452;-80
2022/02/13 05:00:38;;;;;;;0.30;0.30;;;1.10;99.90;;;;;;5074573;28;20956;-80
2022/02/13 05:03:05;;;;;;;0.57;0.57;;;1.10;99.90;;;;;;5074569;28;20498;-80
2022/02/13 05:05:32;;;;;;;0.33;0.33;;;1.10;99.90;;;;;;5074647;28;20966;-80
2022/02/13 05:07:59;;;;;;;0.30;0.30;;;1.10;99.90;;;;;;5074317;28;20479;-80
2022/02/13 05:10:25;;;;;;;0.80;0.80;;;1.10;99.90;;;;;;5074682;28;20480;-80
2022/02/13 05:12:52;;;;;;;0.30;0.30;;;1.20;99.90;;;;;;5074394;28;20433;-81
2022/02/13 05:15:21;;;;;;;0.30;0.30;;;1.20;99.90;;;;;;5074547;28;20503;-80
2022/02/13 05:17:49;;;;;;;0.30;0.30;;;1.20;99.90;;;;;;5074464;28;20453;-80
2022/02/13 05:20:15;;;;;;;0.80;0.57;;;1.30;99.90;;;;;;5074471;28;20874;-80
2022/02/13 05:22:42;;;;;;;1.60;1.50;;;1.30;99.90;;;;;;5074079;28;20444;-80
2022/02/13 05:25:10;;;;;;;0.70;0.70;;;1.20;99.90;;;;;;5074345;28;20453;-80
2022/02/13 05:27:37;;;;;;;0.30;0.30;;;1.20;99.90;;;;;;5073725;28;20856;-80
2022/02/13 05:30:04;;;;;;;0.30;0.30;;;1.20;99.90;;;;;;5074306;28;20451;-80
2022/02/13 05:32:32;;;;;;;0.40;0.40;;;1.20;99.90;;;;;;5074265;28;20456;-80
2022/02/13 05:34:59;;;;;;;0.30;0.30;;;1.20;99.90;;;;;;5074220;28;20451;-80
2022/02/13 05:37:25;;;;;;;0.30;0.30;;;1.20;99.90;;;;;;5073965;28;20472;-80
2022/02/13 05:39:52;;;;;;;0.30;0.30;;;1.20;99.90;;;;;;5073813;28;20463;-80
2022/02/13 05:42:19;;;;;;;0.30;0.30;;;1.20;99.90;;;;;;5073129;28;20448;-80
2022/02/13 05:44:46;;;;;;;0.30;0.30;;;1.20;99.90;;;;;;5073984;28;20422;-80
2022/02/13 05:47:13;;;;;;;0.40;0.40;;;1.20;99.90;;;;;;5073895;28;20468;-80
2022/02/13 05:49:41;;;;;;;0.30;0.30;;;1.20;99.90;;;;;;5073709;28;20444;-80
2022/02/13 05:52:08;;;;;;;0.30;0.20;;;1.20;99.90;;;;;;5073718;28;20455;-80
2022/02/13 05:54:34;;;;;;;0.90;0.83;;;1.20;99.90;;;;;;5076672;28;20452;-80
2022/02/13 05:57:01;;;;;;;0.40;0.37;;;1.10;99.90;;;;;;5073284;28;20851;-80
2022/02/13 05:59:28;;;;;;;0.30;0.30;;;1.10;99.90;;;;;;5073482;28;20481;-81
2022/02/13 06:01:56;;;;;;;0.40;0.40;;;1.10;99.90;;;;;;5073441;28;20437;-80
2022/02/13 06:04:23;;;;;;;0.60;0.60;;;1.10;99.90;;;;;;5073674;28;20455;-80
2022/02/13 06:06:53;;;;;;;0.30;0.30;;;1.10;99.90;;;;;;5073481;28;20472;-80
2022/02/13 06:09:20;;;;;;;0.30;0.20;;;1.10;99.90;;;;;;5073188;28;20483;-80
2022/02/13 06:11:47;;;;;;;0.30;0.30;;;1.20;99.90;;;;;;5073557;28;20448;-80
2022/02/13 06:14:15;;;;;;;0.30;0.30;;;1.20;99.90;;;;;;5073536;28;20467;-80
2022/02/13 06:16:41;;;;;;;0.40;0.40;;;1.30;99.90;;;;;;5073642;28;20473;-80
2022/02/13 06:19:08;;;;;;;0.30;0.30;;;1.30;99.90;;;;;;5073318;28;21047;-80
2022/02/13 06:21:35;;;;;;;0.47;0.47;;;1.40;99.90;;;;;;5073205;28;20445;-80
2022/02/13 06:24:04;;;;;;;1.23;0.50;;;1.40;99.90;;;;;;5073486;28;20449;-80
2022/02/13 06:26:33;;;;;;;0.30;0.30;;;1.40;99.90;;;;;;5073355;28;20519;-81
2022/02/13 06:29:00;;;;;;;0.30;0.20;;;1.40;99.90;;;;;;5073010;28;20538;-80
2022/02/13 06:31:27;;;;;;;1.27;0.47;;;1.40;99.90;;;;;;5073057;28;20476;-80
2022/02/13 06:33:53;;;;;;;0.30;0.20;;;1.40;99.90;;;;;;5073247;28;20452;-80
2022/02/13 06:36:20;;;;;;;0.73;0.73;;;1.30;99.90;;;;;;5072901;28;20482;-80
2022/02/13 06:38:47;;;;;;;0.30;0.20;;;1.40;99.90;;;;;;5073311;28;20456;-81
2022/02/13 06:41:15;;;;;;;0.40;0.40;;;1.40;99.90;;;;;;5072958;28;20975;-80
2022/02/13 06:43:42;;;;;;;1.63;0.73;;;1.40;99.90;;;;;;5073289;28;20445;-80
2022/02/13 06:46:09;;;;;;;0.30;0.30;;;1.40;99.90;;;;;;5073155;28;20449;-81
2022/02/13 06:48:35;;;;;;;0.40;0.40;;;1.40;99.90;;;;;;5072835;28;21015;-80
2022/02/13 06:51:04;;;;;;;0.30;0.30;;;1.50;99.90;;;;;;5073143;28;20423;-80
2022/02/13 06:53:30;;;;;;;0.30;0.30;;;1.50;99.90;;;;;;5076232;28;20974;-80
2022/02/13 06:55:57;;;;;;;0.30;0.30;;;1.50;99.90;;;;;;5076949;28;20887;-80
2022/02/13 06:58:25;;;;;;;0.30;0.30;;;1.50;99.90;;;;;;5076714;28;20483;-80
2022/02/13 07:00:52;;;;;;;0.30;0.30;;;1.50;99.90;;;;;;5077222;28;20441;-80
2022/02/13 07:03:18;;;;;;;0.30;0.30;;;1.40;99.90;;;;;;5077106;28;20452;-80
2022/02/13 07:05:45;;;;;;;0.40;0.30;;;1.40;99.90;;;;;;5077163;28;20407;-80
2022/02/13 07:08:12;;;;;;;0.30;0.30;;;1.50;99.90;;;;;;5076617;28;20466;-80
2022/02/13 07:10:39;;;;;;;0.30;0.30;;;1.50;99.90;;;;;;5076671;28;20827;-80
2022/02/13 07:13:05;;;;;;;0.30;0.30;;;1.50;99.90;;;;;;5076860;28;20444;-80
2022/02/13 07:15:35;;;;;;;0.30;0.30;;;1.60;99.90;;;;;;5076915;28;20452;-80
2022/02/13 07:18:02;;;;;;;0.30;0.30;;;1.60;99.90;;;;;;5076630;28;20511;-80
2022/02/13 07:20:29;;;;;;;0.30;0.20;;;1.70;99.90;;;;;;5076719;28;20448;-80
2022/02/13 07:22:56;;;;;;;0.33;0.33;;;1.70;99.90;;;;;;5076680;28;20444;-80
2022/02/13 07:25:24;;;;;;;0.60;0.60;;;1.80;99.90;;;;;;5076363;28;20444;-80
2022/02/13 07:27:51;;;;;;;0.60;0.60;;;1.80;99.90;;;;;;5076155;28;20538;-80
2022/02/13 07:30:18;;;;;;;0.30;0.20;;;1.80;99.90;;;;;;5076443;28;20423;-80
2022/02/13 07:32:46;;;;;;;0.30;0.30;;;1.90;99.90;;;;;;5076095;28;20456;-80
2022/02/13 07:35:16;;;;;;;0.30;0.30;;;1.90;99.90;;;;;;5076454;28;20449;-81
2022/02/13 07:37:46;;;;;;;0.33;0.33;;;2.00;99.90;;;;;;5076327;28;20487;-80
2022/02/13 07:40:30;;;;;;;0.40;0.40;;;2.00;99.90;;;;;;5076214;28;20532;-80
2022/02/13 07:43:25;;;;;;;0.30;0.30;;;2.10;99.90;;;;;;5076322;28;20499;-80
2022/02/13 07:45:59;;;;;;;0.30;0.20;;;2.20;99.90;;;;;;5075923;28;20892;-80
2022/02/13 07:48:47;;;;;;;0.40;0.40;;;2.20;99.90;;;;;;5076248;28;20539;-80
2022/02/13 07:51:14;;;;;;;0.40;0.40;;;2.20;99.90;;;;;;5075816;28;20479;-80
2022/02/13 07:53:44;;;;;;;0.93;0.93;;;2.20;99.90;;;;;;5077016;28;20448;-80
2022/02/13 07:56:11;;;;;;;0.30;0.20;;;2.30;99.90;;;;;;5075421;28;20437;-80
2022/02/13 07:58:38;;;;;;;0.30;0.30;;;2.50;99.90;;;;;;5075988;28;20438;-80
2022/02/13 08:01:07;;;;;;;0.33;0.33;;;2.60;99.90;;;;;;5075667;28;20921;-80
2022/02/13 08:03:36;;;;;;;0.30;0.23;;;2.60;99.90;;;;;;5074791;28;20429;-80
2022/02/13 08:06:07;;;;;;;0.30;0.20;;;2.60;99.90;;;;;;5075860;28;20780;-80
2022/02/13 08:08:36;;;;;;;0.30;0.30;;;2.60;99.90;;;;;;5075878;28;20465;-80
2022/02/13 08:11:03;;;;;;;0.30;0.30;;;2.70;99.90;;;;;;5075415;28;20463;-80
2022/02/13 08:13:37;;;;;;;0.50;0.47;;;2.70;99.90;;;;;;5075721;28;20471;-80
2022/02/13 08:16:05;;;;;;;0.30;0.20;;;2.70;99.90;;;;;;5075680;28;20432;-80
2022/02/13 08:18:34;;;;;;;0.30;0.30;;;2.80;99.90;;;;;;5075313;28;20959;-80
2022/02/13 08:21:03;;;;;;;0.30;0.20;;;2.90;99.90;;;;;;5075420;28;20422;-80
2022/02/13 08:23:30;;;;;;;0.63;0.63;;;3.00;99.90;;;;;;5075428;28;20436;-79
2022/02/13 08:26:02;;;;;;;0.30;0.20;;;3.10;99.90;;;;;;5075442;28;20475;-80
2022/02/13 08:28:31;;;;;;;0.70;0.63;;;3.20;99.90;;;;;;5074973;28;20469;-80
2022/02/13 08:30:58;;;;;;;0.30;0.30;;;3.20;99.90;;;;;;5075461;28;20856;-80
2022/02/13 08:33:25;;;;;;;0.37;0.30;;;3.30;99.90;;;;;;5075198;28;20952;-80
2022/02/13 08:35:51;;;;;;;0.40;0.33;;;3.40;99.90;;;;;;5075106;28;20437;-80
2022/02/13 08:38:22;;;;;;;1.33;0.77;;;3.50;99.90;;;;;;5075087;28;20825;-80
2022/02/13 08:40:48;;;;;;;0.30;0.20;;;3.70;99.90;;;;;;5075376;28;20431;-80
2022/02/13 08:43:15;;;;;;;0.30;0.30;;;3.70;99.90;;;;;;5074920;28;20955;-80
2022/02/13 08:45:42;;;;;;;0.40;0.40;;;3.80;99.90;;;;;;5075157;28;20456;-80
2022/02/13 08:48:09;;;;;;;0.37;0.27;;;3.90;99.90;;;;;;5074583;28;20473;-80
2022/02/13 08:50:35;;;;;;;0.30;0.27;;;4.00;99.90;;;;;;5075070;28;20436;-80
2022/02/13 08:53:02;;;;;;;0.87;0.83;;;4.20;99.90;;;;;;5074964;28;20456;-80
2022/02/13 08:55:30;;;;;;;0.30;0.20;;;4.40;99.90;;;;;;5074727;28;20414;-80
2022/02/13 08:57:58;;;;;;;0.30;0.20;;;4.60;99.90;;;;;;5074472;28;20838;-80
2022/02/13 09:00:26;;;;;;;0.30;0.30;;;4.90;99.90;;;;;;5075334;28;20462;-80
2022/02/13 09:02:52;;;;;;;0.30;0.30;;;5.20;99.90;;;;;;5074730;28;20868;-80
2022/02/13 09:05:19;;;;;;;0.30;0.30;;;5.50;99.90;;;;;;5074567;28;20433;-80
2022/02/13 09:07:46;;;;;;;0.30;0.30;;;6.10;99.90;;;;;;5074584;28;20476;-79
2022/02/13 09:10:14;;;;;;;1.03;1.03;;;6.70;99.90;;;;;;5074639;28;20486;-80
2022/02/13 09:12:43;;;;;;;0.30;0.30;;;7.50;99.90;;;;;;5074652;28;20449;-80
2022/02/13 09:15:11;;;;;;;0.40;0.30;;;8.50;99.90;;;;;;5074413;28;20445;-80
2022/02/13 09:17:38;;;;;;;0.77;0.77;;;9.30;99.90;;;;;;5074135;28;20472;-80
2022/02/13 09:20:07;;;;;;;0.40;0.40;;;10.40;99.90;;;;;;5074394;28;20449;-80
2022/02/13 09:22:34;;;;;;;1.23;0.60;;;11.40;99.90;;;;;;5074012;28;20794;-80
2022/02/13 09:25:01;;;;;;;0.67;0.40;;;12.30;96.80;;;;;;5074330;28;20453;-80
2022/02/13 09:27:27;;;;;;;3.00;2.70;;;13.10;93.90;;;;;;5074335;28;20503;-80
2022/02/13 09:29:55;;;;;;;0.40;0.40;;;14.00;91.20;;;;;;5073989;28;20495;-80
2022/02/13 09:32:24;;;;;;;0.83;0.60;;;14.80;85.20;;;;;;5074257;28;20456;-80
2022/02/13 09:34:50;;;;;;;0.83;0.50;;;15.80;78.10;;;;;;5074272;28;20830;-80
2022/02/13 09:37:17;;;;;;;0.50;0.50;;;16.80;72.10;;;;;;5074133;28;20810;-80
2022/02/13 09:39:44;;;;;;;0.80;0.80;;;17.50;66.80;;;;;;5074181;28;20456;-80
2022/02/13 09:42:12;;;;;;;2.20;1.00;;;18.40;63.50;;;;;;5074029;28;20452;-80
2022/02/13 09:44:38;;;;;;;2.00;1.87;;;19.00;58.40;;;;;;5073965;28;20431;-81
2022/02/13 09:47:08;;;;;;;1.13;0.93;;;19.40;57.40;;;;;;5073617;28;20468;-81
2022/02/13 09:49:35;;;;;;;1.27;1.17;;;19.20;55.20;;;;;;5073319;28;20480;-81
2022/02/13 09:52:02;;;;;;;1.40;0.73;;;19.30;56.00;;;;;;5073685;28;20440;-82
2022/02/13 09:54:29;;;;;;;0.70;0.70;;;19.30;53.20;;;;;;5073574;28;20448;-81
2022/02/13 09:57:59;;;;;;;2.07;1.80;;;19.00;53.30;;;;;;5073225;28;20845;-81
2022/02/13 09:59:57;;;;;;;1.43;1.20;;;19.10;53.10;;;;;;5073212;28;20846;-81
2022/02/13 10:02:38;;;;;;;2.50;0.97;;;19.20;53.00;;;;;;5073593;28;20539;-81
2022/02/13 10:05:07;;;;;;;1.93;1.10;;;18.70;52.20;;;;;;5073629;28;20473;-81
2022/02/13 10:07:34;;;;;;;2.20;0.70;;;18.00;54.00;;;;;;5073152;28;20464;-81
2022/02/13 10:10:02;;;;;;;1.20;1.10;;;17.80;54.20;;;;;;5073634;28;20537;-81
2022/02/13 10:12:30;;;;;;;0.87;0.87;;;17.40;55.60;;;;;;5073405;28;20433;-81
2022/02/13 10:14:57;;;;;;;1.30;1.17;;;17.20;55.00;;;;;;5073293;28;20806;-80
2022/02/13 10:17:25;;;;;;;1.07;0.70;;;17.30;55.60;;;;;;5073449;28;20472;-80
2022/02/13 10:19:56;;;;;;;0.83;0.73;;;17.90;54.80;;;;;;5073593;28;20439;-80
2022/02/13 10:22:33;;;;;;;2.60;0.90;;;18.50;53.60;;;;;;5073557;28;20432;-80
2022/02/13 10:25:14;;;;;;;0.70;0.70;;;19.00;53.70;;;;;;5073771;28;20437;-80
2022/02/13 10:27:49;;;;;;;1.50;0.97;;;19.60;52.80;;;;;;5072855;28;20499;-80
2022/02/13 10:30:34;;;;;;;2.33;0.80;;;20.00;50.90;;;;;;5073004;28;20553;-80
2022/02/13 10:33:21;;;;;;;2.70;0.90;;;20.60;51.40;;;;;;5073963;28;20425;-80
2022/02/13 10:36:10;;;;;;;0.87;0.70;;;20.80;49.90;;;;;;5073448;28;20409;-80
2022/02/13 10:38:39;;;;;;;1.20;0.83;;;21.00;48.70;;;;;;5073086;28;20927;-80
2022/02/13 10:41:17;;;;;;;2.10;1.07;;;20.90;49.30;;;;;;5073069;28;20432;-80
2022/02/13 10:43:52;;;;;;;0.70;0.70;;;20.70;49.20;;;;;;5073646;28;20875;-80
2022/02/13 10:46:21;;;;;;;1.30;1.10;;;20.20;48.80;;;;;;5073207;28;20444;-80
2022/02/13 10:48:48;;;;;;;0.73;0.73;;;19.40;49.40;;;;;;5073131;28;20205;-80
2022/02/13 10:51:16;;;;;;;2.77;1.47;;;19.00;50.00;;;;;;5073146;28;20205;-80
2022/02/13 10:53:45;;;;;;;1.40;1.30;;;19.10;51.40;;;;;;5073173;28;20209;-80
2022/02/13 10:56:11;;;;;;;0.90;0.60;;;18.40;50.00;;;;;;5072917;28;20432;-80
2022/02/13 10:58:39;;;;;;;2.03;1.20;;;18.30;51.40;;;;;;5073155;28;20436;-80
2022/02/13 11:01:07;;;;;;;1.13;1.00;;;17.80;52.70;;;;;;5073102;28;20452;-80
2022/02/13 11:03:36;;;;;;;1.67;0.90;;;17.40;53.30;;;;;;5073100;28;20699;-80
2022/02/13 11:06:04;;;;;;;1.83;1.27;;;16.90;53.20;;;;;;5072958;28;20821;-81
2022/02/13 11:08:35;;;;;;;1.53;1.23;;;16.30;54.30;;;;;;5073012;28;20449;-81
2022/02/13 11:11:03;;;;;;;1.90;1.00;;;15.50;55.50;;;;;;5072711;28;20475;-80
2022/02/13 11:13:35;;;;;;;0.60;0.60;;;15.00;57.50;;;;;;5073388;28;21015;-81
2022/02/13 11:16:01;;;;;;;0.60;0.60;;;14.40;57.70;;;;;;5072819;28;20437;-80
2022/02/13 11:18:41;;;;;;;0.70;0.70;;;13.60;59.20;;;;;;5072633;28;20439;-80
2022/02/13 11:21:09;;;;;;;1.40;1.03;;;13.00;60.50;;;;;;5072853;28;20487;-80
2022/02/13 11:23:37;;;;;;;2.00;1.17;;;12.50;62.00;;;;;;5072567;28;20519;-81
2022/02/13 11:26:06;;;;;;;1.70;0.57;;;12.10;63.50;;;;;;5072550;28;20409;-81
2022/02/13 11:28:56;;;;;;;0.73;0.70;;;11.80;63.90;;;;;;5073336;28;20476;-80
2022/02/13 11:31:39;;;;;;;1.03;0.83;;;11.90;65.60;;;;;;5073111;28;20441;-81
2022/02/13 11:34:07;;;;;;;0.63;0.53;;;11.70;66.40;;;;;;5072895;28;20432;-81
2022/02/13 11:36:49;;;;;;;0.47;0.47;;;11.50;66.00;;;;;;5072751;28;20906;-81
2022/02/13 11:39:38;;;;;;;0.60;0.40;;;11.40;66.50;;;;;;5075397;28;20447;-81
2022/02/13 11:42:08;;;;;;;0.30;0.30;;;11.20;66.00;;;;;;5076148;28;20429;-80
2022/02/13 11:44:42;;;;;;;0.67;0.50;;;11.30;65.60;;;;;;5076331;28;20539;-81
2022/02/13 11:47:10;;;;;;;0.77;0.77;;;11.40;66.40;;;;;;5076026;28;20456;-81
2022/02/13 11:50:21;;;;;;;0.33;0.30;;;11.50;65.20;;;;;;5075936;28;20487;-81
2022/02/13 11:53:00;;;;;;;2.20;0.43;;;11.50;65.90;;;;;;5076120;28;20442;-81
2022/02/13 11:55:31;;;;;;;0.90;0.60;;;11.60;65.50;;;;;;5076171;28;20502;-81
2022/02/13 11:58:00;;;;;;;0.40;0.40;;;11.60;65.40;;;;;;5075757;28;20484;-81
2022/02/13 12:00:35;;;;;;;1.40;0.50;;;11.50;65.50;;;;;;5075859;28;20445;-81
2022/02/13 12:03:15;;;;;;;0.40;0.40;;;11.40;65.40;;;;;;5076004;28;20813;-81
2022/02/13 12:05:43;;;;;;;1.57;0.50;;;11.30;66.40;;;;;;5076408;28;20441;-80
2022/02/13 12:08:10;;;;;;;0.77;0.30;;;11.20;66.80;;;;;;5075925;28;20477;-82
2022/02/13 12:10:41;;;;;;;0.70;0.50;;;11.10;67.30;;;;;;5075830;28;20473;-79
2022/02/13 12:13:11;;;;;;;1.27;1.17;;;11.10;67.50;;;;;;5075596;28;20432;-80
2022/02/13 12:15:39;;;;;;;1.13;0.50;;;11.00;68.50;;;;;;5075381;28;20457;-80
2022/02/13 12:18:10;;;;;;;0.50;0.50;;;11.00;68.10;;;;;;5075478;28;20472;-80
2022/02/13 12:20:38;;;;;;;0.30;0.30;;;11.00;67.90;;;;;;5075660;28;20440;-80
2022/02/13 12:23:06;;;;;;;0.40;0.30;;;10.90;67.90;;;;;;5075326;28;20948;-80
2022/02/13 12:25:34;;;;;;;0.30;0.30;;;10.80;69.30;;;;;;5075668;28;20448;-81
2022/02/13 12:28:02;;;;;;;0.57;0.57;;;10.70;66.90;;;;;;5075546;28;20471;-81
2022/02/13 12:30:29;;;;;;;9.50;0.70;;;10.60;67.50;;;;;;5075435;28;20484;-81
2022/02/13 12:32:58;;;;;;;0.60;0.40;;;10.60;67.50;;;;;;5075499;28;20436;-81
2022/02/13 12:35:30;;;;;;;1.03;0.80;;;10.60;67.50;;;;;;5075140;28;20872;-81
2022/02/13 12:37:57;;;;;;;0.40;0.40;;;10.50;68.10;;;;;;5075316;28;20508;-81
2022/02/13 12:40:28;;;;;;;0.80;0.50;;;10.40;67.10;;;;;;5075314;28;20527;-80
2022/02/13 12:42:57;;;;;;;2.10;0.50;;;10.30;67.50;;;;;;5075505;28;20429;-81
2022/02/13 12:45:27;;;;;;;0.30;0.30;;;10.40;68.60;;;;;;5075271;28;20449;-80
2022/02/13 12:47:57;;;;;;;0.30;0.30;;;10.40;66.80;;;;;;5075485;28;20465;-81
2022/02/13 12:50:26;;;;;;;0.40;0.30;;;10.30;67.50;;;;;;5074180;28;21066;-80
2022/02/13 12:52:57;;;;;;;0.40;0.40;;;10.20;67.70;;;;;;5075021;28;20483;-81
2022/02/13 12:55:24;;;;;;;0.30;0.30;;;10.20;67.20;;;;;;5075096;28;20440;-81
2022/02/13 12:57:52;;;;;;;2.20;0.63;;;10.20;68.20;;;;;;5074475;28;20835;-81
2022/02/13 13:00:21;;;;;;;0.40;0.30;;;10.10;69.30;;;;;;5074907;28;20448;-81
2022/02/13 13:02:54;;;;;;;0.60;0.50;;;10.10;68.80;;;;;;5074910;28;20476;-81